Time;durP1;ratioP1;P1;durP2;ratioP2;P2;SDS_P1;SDS_P2;PMS_P1;PMS_P2;Temp;Humidity;BMP_temperature;BMP_pressure;BME280_temperature;BME280_humidity;BME280_pressure;Samples;Min_cycle;Max_cycle;Signal;HPM_P1;HPM_P2
2024/04/18 00:00:18;;;;;;;20.37;12.10;;;4.20;99.90;;;;;;5435168;26;20471;-70
2024/04/18 00:02:48;;;;;;;16.83;9.93;;;4.40;99.90;;;;;;5433962;26;20519;-70
2024/04/18 00:05:16;;;;;;;19.20;11.27;;;4.40;99.90;;;;;;5434479;26;20537;-70
2024/04/18 00:07:49;;;;;;;15.27;8.63;;;4.40;99.90;;;;;;5443454;26;20458;-70
2024/04/18 00:10:17;;;;;;;16.20;9.50;;;4.60;99.90;;;;;;5447205;26;20504;-71
2024/04/18 00:12:46;;;;;;;17.97;9.23;;;4.60;99.90;;;;;;5447299;26;20467;-70
2024/04/18 00:15:16;;;;;;;15.30;8.97;;;4.60;99.90;;;;;;5445990;26;20482;-69
2024/04/18 00:17:46;;;;;;;16.10;8.57;;;4.60;99.90;;;;;;5445879;26;20564;-70
2024/04/18 00:20:13;;;;;;;18.20;10.73;;;4.70;99.90;;;;;;5457606;26;20470;-69
2024/04/18 00:22:42;;;;;;;16.97;10.67;;;4.70;99.90;;;;;;5445968;26;20520;-70
2024/04/18 00:25:12;;;;;;;17.43;9.93;;;4.70;99.90;;;;;;5445938;26;20469;-70
2024/04/18 00:27:42;;;;;;;16.03;9.97;;;4.60;99.90;;;;;;5445975;26;20462;-70
2024/04/18 00:30:10;;;;;;;18.58;13.20;;;4.50;99.90;;;;;;5443799;26;20853;-70
2024/04/18 00:32:40;;;;;;;17.27;11.03;;;4.50;99.90;;;;;;5445731;26;20228;-71
2024/04/18 00:35:07;;;;;;;21.63;11.30;;;4.50;99.90;;;;;;5445426;26;20893;-70
2024/04/18 00:37:36;;;;;;;19.07;10.10;;;4.50;99.90;;;;;;5445743;26;20480;-70
2024/04/18 00:40:04;;;;;;;17.77;10.07;;;4.60;99.90;;;;;;5445337;26;20869;-70
2024/04/18 00:42:36;;;;;;;16.57;10.80;;;4.50;99.90;;;;;;5445710;26;20501;-70
2024/04/18 00:45:04;;;;;;;19.83;11.57;;;4.50;99.90;;;;;;5445305;26;20888;-70
2024/04/18 00:47:34;;;;;;;16.70;10.23;;;4.40;99.90;;;;;;5445461;26;20524;-71
2024/04/18 00:50:03;;;;;;;21.30;11.10;;;4.30;99.90;;;;;;5437153;26;20468;-71
2024/04/18 00:52:33;;;;;;;16.27;9.77;;;4.30;99.90;;;;;;5444882;26;20474;-70
2024/04/18 00:55:03;;;;;;;17.00;10.30;;;4.30;99.90;;;;;;5444181;26;21008;-71
2024/04/18 00:57:33;;;;;;;14.83;8.70;;;4.50;99.90;;;;;;5445178;26;21009;-71
2024/04/18 01:00:03;;;;;;;14.53;9.13;;;4.60;99.90;;;;;;5444236;26;20579;-70
2024/04/18 01:02:33;;;;;;;15.80;10.10;;;4.50;99.90;;;;;;5445935;26;20465;-71
2024/04/18 01:05:01;;;;;;;18.23;10.20;;;4.50;99.90;;;;;;5444800;26;20473;-71
2024/04/18 01:07:31;;;;;;;18.57;9.77;;;4.50;99.90;;;;;;5445175;26;20557;-71
2024/04/18 01:09:58;;;;;;;17.83;11.00;;;4.50;99.90;;;;;;5444416;26;20469;-70
2024/04/18 01:12:27;;;;;;;20.27;12.03;;;4.50;99.90;;;;;;5445201;26;20542;-70
2024/04/18 01:14:54;;;;;;;20.03;13.07;;;4.60;99.90;;;;;;5444749;26;20515;-71
2024/04/18 01:17:27;;;;;;;18.07;10.33;;;4.70;99.90;;;;;;5445443;26;20472;-71
2024/04/18 01:19:54;;;;;;;16.70;10.17;;;4.90;99.90;;;;;;5444744;26;20568;-70
2024/04/18 01:22:24;;;;;;;18.97;11.97;;;4.80;99.90;;;;;;5445247;26;20533;-70
2024/04/18 01:24:51;;;;;;;18.33;12.30;;;4.70;99.90;;;;;;5444223;26;20470;-71
2024/04/18 01:27:23;;;;;;;19.43;12.63;;;4.70;99.90;;;;;;5444800;26;20563;-70
2024/04/18 01:29:51;;;;;;;19.73;13.37;;;4.70;99.90;;;;;;5443612;26;20817;-72
2024/04/18 01:32:20;;;;;;;19.23;12.77;;;4.70;99.90;;;;;;5444734;26;20466;-70
2024/04/18 01:34:47;;;;;;;18.90;12.77;;;4.70;99.90;;;;;;5430920;26;20524;-70
2024/04/18 01:37:17;;;;;;;18.70;12.30;;;4.70;99.90;;;;;;5444653;26;20524;-70
2024/04/18 01:39:44;;;;;;;19.30;10.87;;;4.90;99.90;;;;;;5443832;26;20530;-71
2024/04/18 01:42:14;;;;;;;19.20;11.13;;;4.90;99.90;;;;;;5444687;26;21422;-70
2024/04/18 01:44:45;;;;;;;20.10;13.37;;;4.90;99.90;;;;;;5443968;26;20956;-70
2024/04/18 01:47:15;;;;;;;20.40;11.70;;;5.10;99.90;;;;;;5444770;26;20461;-71
2024/04/18 01:49:42;;;;;;;17.10;10.83;;;5.10;99.90;;;;;;5444123;26;20459;-68
2024/04/18 01:52:11;;;;;;;18.00;11.03;;;5.00;99.90;;;;;;5444537;26;20474;-70
2024/04/18 01:54:38;;;;;;;14.17;8.90;;;5.00;99.90;;;;;;5446123;26;20470;-70
2024/04/18 01:57:08;;;;;;;16.67;9.10;;;5.00;99.90;;;;;;5442344;26;20526;-70
2024/04/18 01:59:35;;;;;;;19.87;10.50;;;5.10;99.90;;;;;;5447399;26;20695;-71
2024/04/18 02:02:08;;;;;;;17.85;11.40;;;5.00;99.90;;;;;;5445494;26;20362;-70
2024/04/18 02:04:35;;;;;;;15.13;9.50;;;5.00;99.90;;;;;;5438571;26;20568;-70
2024/04/18 02:07:05;;;;;;;19.50;11.20;;;4.90;99.90;;;;;;5447191;26;21167;-70
2024/04/18 02:09:32;;;;;;;16.60;10.57;;;5.00;99.90;;;;;;5433794;26;20521;-70
2024/04/18 02:12:01;;;;;;;18.13;11.87;;;4.90;99.90;;;;;;5448153;26;20578;-69
2024/04/18 02:14:28;;;;;;;21.20;13.03;;;4.80;99.90;;;;;;5447493;26;20467;-71
2024/04/18 02:16:58;;;;;;;25.10;15.07;;;4.80;99.90;;;;;;5447668;26;21311;-70
2024/04/18 02:19:28;;;;;;;21.37;14.37;;;4.80;99.90;;;;;;5436202;26;20491;-70
2024/04/18 02:21:58;;;;;;;22.53;13.90;;;4.80;99.90;;;;;;5445910;26;21035;-70
2024/04/18 02:24:25;;;;;;;24.80;15.60;;;4.70;99.90;;;;;;5447250;26;20471;-71
2024/04/18 02:26:54;;;;;;;22.53;15.00;;;4.90;99.90;;;;;;5447609;26;20588;-70
2024/04/18 02:29:21;;;;;;;20.60;13.70;;;4.90;99.90;;;;;;5447353;26;20525;-70
2024/04/18 02:31:51;;;;;;;18.70;11.83;;;5.00;99.90;;;;;;5447066;26;21024;-71
2024/04/18 02:34:18;;;;;;;21.17;12.40;;;5.10;99.90;;;;;;5447181;26;21092;-70
2024/04/18 02:36:50;;;;;;;20.27;13.23;;;5.00;99.90;;;;;;5447360;26;20470;-69
2024/04/18 02:39:17;;;;;;;19.47;12.77;;;4.90;99.90;;;;;;5440057;26;20477;-69
2024/04/18 02:41:47;;;;;;;19.00;11.33;;;4.90;99.90;;;;;;5447183;26;20509;-71
2024/04/18 02:44:14;;;;;;;19.90;10.63;;;4.90;99.90;;;;;;5446393;26;20540;-70
2024/04/18 02:46:44;;;;;;;13.43;7.10;;;4.80;99.90;;;;;;5447150;26;20465;-72
2024/04/18 02:49:11;;;;;;;13.30;7.57;;;4.90;99.90;;;;;;5446817;26;20516;-70
2024/04/18 02:51:41;;;;;;;14.30;8.30;;;4.90;99.90;;;;;;5446823;26;20491;-70
2024/04/18 02:54:10;;;;;;;13.87;7.70;;;4.90;99.90;;;;;;5446614;26;20638;-70
2024/04/18 02:56:40;;;;;;;13.43;8.20;;;4.90;99.90;;;;;;5446812;26;20479;-71
2024/04/18 02:59:07;;;;;;;14.30;8.83;;;4.80;99.90;;;;;;5444562;26;20483;-71
2024/04/18 03:01:37;;;;;;;16.77;9.77;;;4.90;99.90;;;;;;5446933;26;20517;-71
2024/04/18 03:04:04;;;;;;;17.53;10.30;;;4.90;99.90;;;;;;5446289;26;20474;-71
2024/04/18 03:06:34;;;;;;;17.43;11.20;;;5.00;99.90;;;;;;5445223;26;20462;-70
2024/04/18 03:09:01;;;;;;;19.30;10.90;;;5.00;99.90;;;;;;5441480;26;20618;-70
2024/04/18 03:11:33;;;;;;;19.80;11.33;;;5.10;99.90;;;;;;5437744;26;20533;-70
2024/04/18 03:14:00;;;;;;;15.13;9.13;;;5.20;99.90;;;;;;5446654;26;20472;-71
2024/04/18 03:16:30;;;;;;;13.63;8.30;;;5.30;99.90;;;;;;5447364;26;20474;-70
2024/04/18 03:18:59;;;;;;;13.40;7.17;;;5.40;99.90;;;;;;5446620;26;20518;-71
2024/04/18 03:21:28;;;;;;;13.97;6.97;;;5.40;99.90;;;;;;5446729;26;20865;-72
2024/04/18 03:23:56;;;;;;;12.87;7.70;;;5.30;99.90;;;;;;5438509;26;20531;-70
2024/04/18 03:26:25;;;;;;;14.00;7.20;;;5.30;99.90;;;;;;5446611;26;20541;-69
2024/04/18 03:28:55;;;;;;;13.33;7.17;;;5.30;99.90;;;;;;5446394;26;20471;-72
2024/04/18 03:31:24;;;;;;;10.90;5.70;;;5.20;99.90;;;;;;5446954;26;20465;-71
2024/04/18 03:33:52;;;;;;;12.60;6.60;;;5.10;99.90;;;;;;5440361;26;20456;-71
2024/04/18 03:36:21;;;;;;;11.53;5.63;;;5.20;99.90;;;;;;5444101;26;20469;-70
2024/04/18 03:38:54;;;;;;;13.82;7.82;;;5.20;99.90;;;;;;5432956;26;20369;-69
2024/04/18 03:41:25;;;;;;;12.00;6.50;;;5.10;99.90;;;;;;5446558;26;20291;-70
2024/04/18 03:43:58;;;;;;;11.80;6.43;;;5.10;99.90;;;;;;5446554;26;20477;-72
2024/04/18 03:46:28;;;;;;;12.03;6.53;;;4.90;99.90;;;;;;5445591;26;20524;-70
2024/04/18 03:48:58;;;;;;;12.60;6.50;;;4.90;99.90;;;;;;5444086;26;20470;-71
2024/04/18 03:51:29;;;;;;;11.90;5.90;;;4.80;99.90;;;;;;5444810;26;20907;-71
2024/04/18 03:53:57;;;;;;;11.40;5.47;;;4.80;99.90;;;;;;5443451;26;21058;-72
2024/04/18 03:56:27;;;;;;;11.37;5.50;;;4.90;99.90;;;;;;5446032;26;21113;-71
2024/04/18 03:58:57;;;;;;;10.70;5.10;;;5.10;99.90;;;;;;5444892;26;20526;-70
2024/04/18 04:01:28;;;;;;;9.90;4.30;;;5.10;99.90;;;;;;5445048;26;20464;-71
2024/04/18 04:03:56;;;;;;;11.13;5.53;;;5.10;99.90;;;;;;5444683;26;20812;-71
2024/04/18 04:06:26;;;;;;;12.30;5.97;;;5.00;99.90;;;;;;5445146;26;20515;-69
2024/04/18 04:08:53;;;;;;;12.00;5.67;;;5.00;99.90;;;;;;5448956;26;20983;-71
2024/04/18 04:11:23;;;;;;;12.97;6.43;;;5.00;99.90;;;;;;5446842;26;20812;-71
2024/04/18 04:13:50;;;;;;;12.93;6.10;;;5.00;99.90;;;;;;5441903;26;20476;-71
2024/04/18 04:16:24;;;;;;;13.10;5.97;;;4.90;99.90;;;;;;5444259;26;20472;-72
2024/04/18 04:18:54;;;;;;;12.00;6.00;;;4.90;99.90;;;;;;5439666;26;20923;-71
2024/04/18 04:21:25;;;;;;;13.73;7.30;;;4.80;99.90;;;;;;5443429;26;20464;-71
2024/04/18 04:23:52;;;;;;;11.63;6.30;;;4.80;99.90;;;;;;5433471;26;20463;-71
2024/04/18 04:26:22;;;;;;;12.37;6.50;;;4.70;99.90;;;;;;5441591;26;20527;-72
2024/04/18 04:28:50;;;;;;;11.93;6.83;;;4.70;99.90;;;;;;5442246;26;21006;-72
2024/04/18 04:31:20;;;;;;;15.23;7.67;;;4.80;99.90;;;;;;5445856;26;20529;-71
2024/04/18 04:33:49;;;;;;;13.50;7.57;;;4.90;99.90;;;;;;5444174;26;20458;-71
2024/04/18 04:36:19;;;;;;;11.43;6.23;;;4.90;99.90;;;;;;5444844;26;20515;-71
2024/04/18 04:38:49;;;;;;;13.93;7.40;;;4.90;99.90;;;;;;5437360;26;21229;-72
2024/04/18 04:41:18;;;;;;;11.47;6.50;;;5.00;99.90;;;;;;5440673;26;20644;-71
2024/04/18 04:43:45;;;;;;;13.17;7.37;;;5.00;99.90;;;;;;5442425;26;20457;-70
2024/04/18 04:46:15;;;;;;;14.10;7.37;;;5.00;99.90;;;;;;5448010;26;20464;-75
2024/04/18 04:48:42;;;;;;;12.80;7.10;;;5.00;99.90;;;;;;5440216;26;20469;-73
2024/04/18 04:51:17;;;;;;;14.47;7.47;;;5.10;99.90;;;;;;5445026;26;20591;-71
2024/04/18 04:53:44;;;;;;;13.20;7.33;;;5.00;99.90;;;;;;5441537;26;20451;-72
2024/04/18 04:56:13;;;;;;;13.70;6.97;;;5.00;99.90;;;;;;5432876;26;20465;-72
2024/04/18 04:58:40;;;;;;;13.30;7.80;;;5.10;99.90;;;;;;5435233;26;21048;-72
2024/04/18 05:01:10;;;;;;;12.10;6.60;;;5.20;99.90;;;;;;5445206;26;20475;-71
2024/04/18 05:03:37;;;;;;;11.73;6.80;;;5.30;99.90;;;;;;5444848;26;20594;-71
2024/04/18 05:06:08;;;;;;;13.10;7.10;;;5.40;99.90;;;;;;5445233;26;20596;-72
2024/04/18 05:08:37;;;;;;;12.60;6.97;;;5.50;99.90;;;;;;5445433;26;20519;-72
2024/04/18 05:11:07;;;;;;;12.90;7.17;;;5.60;99.90;;;;;;5445599;26;20514;-71
2024/04/18 05:13:34;;;;;;;13.60;6.90;;;5.50;99.90;;;;;;5445216;26;20873;-71
2024/04/18 05:16:04;;;;;;;14.20;8.07;;;5.40;99.90;;;;;;5445646;26;20520;-70
2024/04/18 05:18:32;;;;;;;13.03;7.60;;;5.30;99.90;;;;;;5436617;26;20471;-72
2024/04/18 05:21:02;;;;;;;13.37;8.03;;;5.40;99.90;;;;;;5443558;26;20477;-70
2024/04/18 05:23:29;;;;;;;13.63;7.27;;;5.50;99.90;;;;;;5438983;26;20477;-70
2024/04/18 05:26:02;;;;;;;16.33;8.37;;;5.50;99.90;;;;;;5444066;26;20526;-71
2024/04/18 05:28:40;;;;;;;15.23;8.10;;;5.50;99.90;;;;;;5443122;26;20523;-70
2024/04/18 05:31:11;;;;;;;16.80;9.40;;;5.60;99.90;;;;;;5445925;26;20510;-71
2024/04/18 05:33:40;;;;;;;15.10;8.87;;;5.60;99.90;;;;;;5444674;26;21029;-69
2024/04/18 05:36:10;;;;;;;15.10;9.70;;;5.50;99.90;;;;;;5448049;26;21097;-71
2024/04/18 05:38:40;;;;;;;15.87;9.53;;;5.40;99.90;;;;;;5444305;26;20472;-71
2024/04/18 05:41:12;;;;;;;17.40;11.10;;;5.30;99.90;;;;;;5447863;26;20469;-70
2024/04/18 05:43:42;;;;;;;15.10;9.60;;;5.30;99.90;;;;;;5447485;26;20848;-70
2024/04/18 05:46:12;;;;;;;15.90;9.53;;;5.30;99.90;;;;;;5445609;26;20552;-71
2024/04/18 05:48:41;;;;;;;16.00;9.50;;;5.20;99.90;;;;;;5446245;26;20458;-71
2024/04/18 05:51:11;;;;;;;16.03;9.97;;;5.20;99.90;;;;;;5448223;26;20477;-72
2024/04/18 05:53:41;;;;;;;17.03;10.60;;;5.20;99.90;;;;;;5447356;26;20521;-70
2024/04/18 05:56:13;;;;;;;17.13;10.27;;;5.00;99.90;;;;;;5447907;26;21086;-71
2024/04/18 05:58:46;;;;;;;18.07;9.70;;;5.10;99.90;;;;;;5447552;26;20469;-70
2024/04/18 06:01:16;;;;;;;16.00;10.73;;;5.10;99.90;;;;;;5447994;26;20517;-70
2024/04/18 06:03:43;;;;;;;17.77;10.20;;;5.10;99.90;;;;;;5447416;26;20823;-69
2024/04/18 06:06:12;;;;;;;15.97;9.57;;;5.10;99.90;;;;;;5448202;26;20531;-70
2024/04/18 06:08:42;;;;;;;15.30;8.67;;;5.10;99.90;;;;;;5447289;26;20586;-69
2024/04/18 06:11:17;;;;;;;14.70;9.07;;;5.20;99.90;;;;;;5447665;26;20513;-69
2024/04/18 06:13:47;;;;;;;15.43;9.77;;;5.20;99.90;;;;;;5446851;26;20893;-69
2024/04/18 06:16:17;;;;;;;20.10;10.00;;;5.40;99.90;;;;;;5435177;26;20516;-68
2024/04/18 06:18:46;;;;;;;19.83;9.67;;;5.40;99.90;;;;;;5447832;26;20477;-69
2024/04/18 06:21:16;;;;;;;40.80;12.00;;;5.40;99.90;;;;;;5449410;26;20582;-68
2024/04/18 06:23:46;;;;;;;43.93;12.73;;;5.40;99.90;;;;;;5448389;26;20876;-69
2024/04/18 06:26:18;;;;;;;14.13;7.57;;;5.30;99.90;;;;;;5434603;26;20464;-69
2024/04/18 06:28:48;;;;;;;12.60;7.50;;;5.40;99.90;;;;;;5447577;26;20581;-68
2024/04/18 06:31:18;;;;;;;13.60;8.60;;;5.30;99.90;;;;;;5446649;26;20509;-69
2024/04/18 06:33:48;;;;;;;15.43;8.30;;;5.30;99.90;;;;;;5446858;26;20472;-69
2024/04/18 06:36:18;;;;;;;16.10;9.57;;;5.30;99.90;;;;;;5447873;26;20456;-70
2024/04/18 06:38:48;;;;;;;21.07;10.17;;;5.40;99.90;;;;;;5447670;26;20475;-70
2024/04/18 06:41:20;;;;;;;26.07;9.80;;;5.40;99.90;;;;;;5447186;26;20467;-70
2024/04/18 06:43:50;;;;;;;21.40;9.80;;;5.50;99.90;;;;;;5446648;26;20472;-68
2024/04/18 06:46:20;;;;;;;16.63;9.17;;;5.60;99.90;;;;;;5447780;26;20528;-69
2024/04/18 06:48:49;;;;;;;14.63;8.70;;;5.50;99.90;;;;;;5446843;26;20520;-70
2024/04/18 06:51:19;;;;;;;13.57;7.60;;;5.60;99.90;;;;;;5445153;26;20477;-69
2024/04/18 06:53:49;;;;;;;12.50;7.97;;;5.60;99.90;;;;;;5445148;26;20523;-71
2024/04/18 06:56:21;;;;;;;13.77;8.23;;;5.60;99.90;;;;;;5445656;26;20466;-68
2024/04/18 06:58:51;;;;;;;12.97;7.67;;;5.70;99.90;;;;;;5445640;26;21177;-69
2024/04/18 07:01:21;;;;;;;12.23;6.97;;;5.80;99.90;;;;;;5445477;26;20612;-70
2024/04/18 07:03:51;;;;;;;11.20;6.17;;;5.90;99.90;;;;;;5444142;26;20587;-68
2024/04/18 07:06:21;;;;;;;10.60;5.77;;;5.90;99.90;;;;;;5444333;26;20484;-69
2024/04/18 07:08:50;;;;;;;10.73;5.60;;;5.90;99.90;;;;;;5431837;26;20465;-69
2024/04/18 07:11:23;;;;;;;11.67;6.33;;;6.00;99.90;;;;;;5444485;26;20475;-72
2024/04/18 07:13:53;;;;;;;13.73;7.13;;;6.10;99.90;;;;;;5444858;26;21026;-69
2024/04/18 07:16:23;;;;;;;11.23;5.63;;;6.20;99.90;;;;;;5445471;26;20463;-69
2024/04/18 07:18:53;;;;;;;11.63;6.50;;;6.40;99.90;;;;;;5444448;26;20529;-69
2024/04/18 07:21:23;;;;;;;12.70;6.87;;;6.50;99.90;;;;;;5445488;26;20562;-74
2024/04/18 07:23:52;;;;;;;11.57;6.40;;;6.60;99.90;;;;;;5444834;26;20799;-70
2024/04/18 07:26:25;;;;;;;11.43;6.47;;;6.60;99.90;;;;;;5446195;26;20523;-70
2024/04/18 07:28:54;;;;;;;12.63;6.40;;;6.70;99.90;;;;;;5446098;26;20528;-70
2024/04/18 07:31:24;;;;;;;12.30;6.07;;;6.80;99.90;;;;;;5446536;26;20530;-70
2024/04/18 07:33:54;;;;;;;12.40;6.90;;;7.00;99.90;;;;;;5446517;26;20459;-70
2024/04/18 07:36:24;;;;;;;14.00;6.50;;;7.10;99.90;;;;;;5446857;26;20509;-70
2024/04/18 07:38:54;;;;;;;11.43;6.30;;;7.00;99.90;;;;;;5446210;26;20581;-70
2024/04/18 07:41:26;;;;;;;10.87;6.17;;;6.90;99.90;;;;;;5446696;26;20828;-70
2024/04/18 07:43:56;;;;;;;9.90;5.37;;;6.90;99.90;;;;;;5446360;26;20571;-70
2024/04/18 07:46:31;;;;;;;10.23;5.20;;;6.80;99.90;;;;;;5446985;26;20507;-69
2024/04/18 07:49:02;;;;;;;9.80;5.07;;;6.60;99.90;;;;;;5446218;26;20467;-70
2024/04/18 07:51:31;;;;;;;12.93;5.90;;;6.60;99.90;;;;;;5445546;26;20585;-70
2024/04/18 07:54:01;;;;;;;9.87;5.00;;;6.70;99.90;;;;;;5446211;26;20465;-69
2024/04/18 07:56:34;;;;;;;11.27;5.80;;;6.90;99.90;;;;;;5446394;26;20467;-69
2024/04/18 07:59:03;;;;;;;11.33;6.30;;;6.90;99.90;;;;;;5446237;26;20532;-70
2024/04/18 08:01:34;;;;;;;11.40;6.20;;;6.90;99.90;;;;;;5446417;26;20471;-69
2024/04/18 08:04:07;;;;;;;11.30;6.33;;;7.00;99.90;;;;;;5446497;26;20471;-70
2024/04/18 08:06:57;;;;;;;11.80;6.60;;;7.00;99.90;;;;;;5446306;26;20818;-69
2024/04/18 08:09:30;;;;;;;13.50;7.73;;;6.80;99.90;;;;;;5446047;26;20464;-70
2024/04/18 08:12:08;;;;;;;12.60;7.10;;;6.80;99.90;;;;;;5446735;26;20931;-70
2024/04/18 08:14:56;;;;;;;12.17;6.67;;;6.90;99.90;;;;;;5441808;26;20470;-69
2024/04/18 08:17:33;;;;;;;11.30;6.30;;;6.80;99.90;;;;;;5447154;26;20518;-70
2024/04/18 08:20:04;;;;;;;12.20;7.30;;;6.70;99.90;;;;;;5446851;26;20559;-71
2024/04/18 08:22:34;;;;;;;15.20;8.03;;;6.80;99.90;;;;;;5446262;26;20526;-70
2024/04/18 08:25:02;;;;;;;11.30;6.90;;;6.80;99.90;;;;;;5445653;26;20471;-70
2024/04/18 08:27:34;;;;;;;13.00;6.93;;;6.80;99.90;;;;;;5446387;26;20810;-69
2024/04/18 08:30:04;;;;;;;13.07;6.70;;;7.00;99.90;;;;;;5445844;26;20536;-69
2024/04/18 08:32:34;;;;;;;13.10;6.87;;;7.00;99.90;;;;;;5446540;26;20908;-70
2024/04/18 08:35:05;;;;;;;12.00;6.90;;;7.20;99.90;;;;;;5445976;26;20981;-70
2024/04/18 08:37:34;;;;;;;11.00;6.40;;;7.60;99.90;;;;;;5446458;26;20519;-70
2024/04/18 08:40:04;;;;;;;12.80;7.00;;;7.90;99.90;;;;;;5446089;26;20471;-70
2024/04/18 08:42:36;;;;;;;12.60;7.00;;;8.00;99.90;;;;;;5445907;26;21064;-70
2024/04/18 08:45:10;;;;;;;12.90;6.80;;;7.90;99.90;;;;;;5445865;26;20523;-70
2024/04/18 08:47:41;;;;;;;13.10;6.67;;;7.80;99.90;;;;;;5446205;26;20594;-69
2024/04/18 08:50:14;;;;;;;11.50;6.80;;;7.80;99.90;;;;;;5445781;26;20471;-69
2024/04/18 08:52:45;;;;;;;13.80;7.60;;;7.70;99.90;;;;;;5445710;26;20479;-70
2024/04/18 08:55:15;;;;;;;15.10;7.70;;;7.50;99.90;;;;;;5445392;26;20580;-71
2024/04/18 08:57:51;;;;;;;12.10;6.07;;;7.60;99.90;;;;;;5445709;26;20535;-71
2024/04/18 09:00:21;;;;;;;10.90;6.30;;;7.90;99.90;;;;;;5437110;26;20471;-70
2024/04/18 09:02:51;;;;;;;11.43;5.60;;;8.30;99.90;;;;;;5445390;26;20469;-70
2024/04/18 09:05:21;;;;;;;10.13;4.80;;;8.40;99.90;;;;;;5439975;26;20472;-70
2024/04/18 09:07:51;;;;;;;12.47;5.80;;;8.40;99.90;;;;;;5449124;26;20458;-70
2024/04/18 09:10:22;;;;;;;12.60;7.00;;;8.30;99.90;;;;;;5440469;26;20508;-69
2024/04/18 09:12:55;;;;;;;11.83;6.10;;;8.30;99.90;;;;;;5449031;26;20562;-71
2024/04/18 09:15:30;;;;;;;10.70;5.50;;;8.40;99.90;;;;;;5442333;26;20575;-70
2024/04/18 09:18:03;;;;;;;11.90;5.93;;;8.60;99.90;;;;;;5448736;26;20460;-70
2024/04/18 09:20:34;;;;;;;10.43;5.60;;;8.70;99.90;;;;;;5448774;26;20851;-70
2024/04/18 09:23:04;;;;;;;11.03;5.40;;;8.70;99.90;;;;;;5448155;26;20594;-70
2024/04/18 09:25:34;;;;;;;10.70;5.77;;;8.70;99.90;;;;;;5448596;26;20583;-70
2024/04/18 09:28:11;;;;;;;9.70;4.50;;;9.10;99.90;;;;;;5448076;26;20521;-70
2024/04/18 09:30:41;;;;;;;9.63;4.97;;;9.90;99.90;;;;;;5447338;26;20970;-70
2024/04/18 09:33:11;;;;;;;10.60;5.30;;;10.60;99.90;;;;;;5448102;26;20238;-71
2024/04/18 09:35:45;;;;;;;8.90;4.40;;;11.10;99.90;;;;;;5448411;26;20572;-69
2024/04/18 09:38:16;;;;;;;10.60;5.10;;;12.50;99.90;;;;;;5447852;26;20473;-71
2024/04/18 09:40:54;;;;;;;10.80;5.30;;;12.70;99.90;;;;;;5448278;26;20485;-71
2024/04/18 09:43:33;;;;;;;10.63;5.00;;;12.00;99.90;;;;;;5440577;26;20467;-71
2024/04/18 09:46:06;;;;;;;9.27;4.70;;;11.60;99.90;;;;;;5448489;26;20473;-70
2024/04/18 09:48:36;;;;;;;9.97;3.87;;;11.90;99.90;;;;;;5448643;26;20580;-71
2024/04/18 09:51:08;;;;;;;9.47;4.80;;;12.30;99.90;;;;;;5448597;26;20466;-71
2024/04/18 09:53:39;;;;;;;8.97;4.70;;;12.50;99.90;;;;;;5448728;26;20470;-70
2024/04/18 09:56:09;;;;;;;8.57;4.53;;;12.00;99.90;;;;;;5448071;26;21152;-71
2024/04/18 09:58:44;;;;;;;9.70;5.00;;;11.50;99.50;;;;;;5448187;26;20586;-71
2024/04/18 10:01:14;;;;;;;8.67;3.50;;;10.40;99.90;;;;;;5449537;26;20461;-70
2024/04/18 10:03:45;;;;;;;8.07;3.20;;;8.60;99.90;;;;;;5449163;26;20573;-71
2024/04/18 10:06:18;;;;;;;8.07;3.70;;;6.80;99.90;;;;;;5449089;26;20471;-71
2024/04/18 10:08:50;;;;;;;13.30;6.50;;;5.30;99.90;;;;;;5447758;26;20531;-71
2024/04/18 10:11:23;;;;;;;11.20;5.50;;;4.60;99.90;;;;;;5448440;26;20471;-70
2024/04/18 10:14:01;;;;;;;11.53;5.23;;;4.20;99.90;;;;;;5447591;26;20526;-71
2024/04/18 10:16:31;;;;;;;13.57;6.87;;;3.90;99.90;;;;;;5441815;26;20467;-71
2024/04/18 10:19:12;;;;;;;12.70;6.17;;;3.90;99.90;;;;;;5447894;26;20530;-71
2024/04/18 10:21:42;;;;;;;13.90;6.97;;;4.20;99.90;;;;;;5447109;26;21142;-72
2024/04/18 10:24:18;;;;;;;13.70;6.57;;;4.40;99.90;;;;;;5445482;26;20519;-71
2024/04/18 10:26:48;;;;;;;13.10;6.80;;;4.70;99.90;;;;;;5444438;26;20559;-71
2024/04/18 10:29:26;;;;;;;13.23;7.00;;;4.80;99.90;;;;;;5446815;26;20467;-72
2024/04/18 10:31:57;;;;;;;13.57;7.60;;;5.10;99.90;;;;;;5441538;26;20517;-70
2024/04/18 10:34:27;;;;;;;13.60;7.30;;;5.50;99.90;;;;;;5447193;26;20467;-71
2024/04/18 10:36:59;;;;;;;13.77;7.37;;;5.80;99.90;;;;;;5448135;26;20523;-72
2024/04/18 10:39:31;;;;;;;13.73;7.43;;;6.20;99.90;;;;;;5447455;26;20462;-72
2024/04/18 10:42:03;;;;;;;12.27;6.43;;;6.50;99.90;;;;;;5447391;26;20460;-72
2024/04/18 10:44:33;;;;;;;13.13;6.70;;;6.90;99.90;;;;;;5446821;26;20583;-71
2024/04/18 10:47:03;;;;;;;13.97;7.37;;;7.00;99.90;;;;;;5447215;26;20463;-72
2024/04/18 10:49:33;;;;;;;11.87;5.80;;;7.20;99.90;;;;;;5447221;26;20467;-71
2024/04/18 10:52:08;;;;;;;11.87;6.30;;;7.70;99.90;;;;;;5446984;26;21038;-71
2024/04/18 10:54:38;;;;;;;11.03;5.30;;;8.40;99.90;;;;;;5446690;26;20481;-69
2024/04/18 10:57:08;;;;;;;9.80;5.10;;;9.40;99.90;;;;;;5447024;26;20482;-68
2024/04/18 10:59:43;;;;;;;12.10;6.07;;;9.90;99.90;;;;;;5446208;26;20933;-68
2024/04/18 11:02:13;;;;;;;11.20;5.73;;;10.00;99.90;;;;;;5446770;26;20519;-68
2024/04/18 11:04:43;;;;;;;10.30;5.50;;;10.50;99.90;;;;;;5446326;26;20558;-69
2024/04/18 11:07:13;;;;;;;10.97;5.23;;;10.60;99.90;;;;;;5446921;26;20526;-68
2024/04/18 11:09:44;;;;;;;10.63;4.93;;;11.30;99.90;;;;;;5446593;26;20525;-69
2024/04/18 11:12:14;;;;;;;9.80;4.83;;;11.60;99.90;;;;;;5446917;26;20471;-68
2024/04/18 11:14:48;;;;;;;10.30;4.63;;;11.40;99.90;;;;;;5446605;26;20710;-69
2024/04/18 11:17:17;;;;;;;10.90;5.93;;;12.10;99.90;;;;;;5446797;26;20516;-70
2024/04/18 11:19:47;;;;;;;9.73;5.17;;;12.50;99.90;;;;;;5445354;26;20475;-71
2024/04/18 11:22:17;;;;;;;10.40;4.97;;;12.40;99.90;;;;;;5445399;26;20469;-70
2024/04/18 11:24:46;;;;;;;10.47;4.63;;;12.40;99.90;;;;;;5446039;26;20473;-70
2024/04/18 11:27:16;;;;;;;9.20;4.50;;;12.00;99.90;;;;;;5445195;26;20518;-69
2024/04/18 11:29:52;;;;;;;9.77;5.20;;;11.90;99.90;;;;;;5444828;26;21118;-69
2024/04/18 11:32:22;;;;;;;10.73;5.00;;;11.20;99.90;;;;;;5438492;26;20474;-70
2024/04/18 11:34:52;;;;;;;11.20;5.83;;;10.20;99.90;;;;;;5446041;26;20523;-69
2024/04/18 11:37:38;;;;;;;10.50;5.10;;;9.70;99.90;;;;;;5441412;26;20583;-71
2024/04/18 11:40:09;;;;;;;11.17;5.70;;;8.50;99.90;;;;;;5446058;26;20516;-70
2024/04/18 11:42:39;;;;;;;11.90;5.00;;;6.60;99.90;;;;;;5446777;26;20560;-70
2024/04/18 11:45:09;;;;;;;10.17;4.90;;;6.10;99.90;;;;;;5445577;26;20475;-70
2024/04/18 11:47:40;;;;;;;11.40;4.40;;;6.10;99.90;;;;;;5445344;26;20576;-70
2024/04/18 11:50:10;;;;;;;10.20;4.97;;;6.00;99.90;;;;;;5442886;26;20561;-72
2024/04/18 11:52:39;;;;;;;12.00;5.27;;;6.20;99.90;;;;;;5441164;26;20514;-70
2024/04/18 11:55:09;;;;;;;10.82;5.40;;;6.30;99.90;;;;;;5446038;26;20365;-70
2024/04/18 11:57:39;;;;;;;9.50;4.87;;;6.40;99.90;;;;;;5446643;26;20233;-70
2024/04/18 12:00:09;;;;;;;11.93;5.83;;;6.50;99.90;;;;;;5449181;26;20537;-69
2024/04/18 12:02:39;;;;;;;12.30;6.13;;;6.60;99.90;;;;;;5443825;26;20517;-69
2024/04/18 12:05:10;;;;;;;12.53;5.70;;;6.70;99.90;;;;;;5444477;26;20470;-69
2024/04/18 12:07:39;;;;;;;11.40;5.73;;;6.80;99.90;;;;;;5439448;26;20491;-70
2024/04/18 12:10:09;;;;;;;14.20;7.03;;;6.90;99.90;;;;;;5442562;26;20851;-69
2024/04/18 12:12:39;;;;;;;11.00;5.63;;;7.30;99.90;;;;;;5443274;26;20528;-70
2024/04/18 12:15:11;;;;;;;12.20;6.30;;;7.60;99.90;;;;;;5446993;26;20483;-69
2024/04/18 12:17:41;;;;;;;12.90;7.10;;;8.00;99.90;;;;;;5443168;26;20528;-69
2024/04/18 12:20:12;;;;;;;9.90;5.30;;;8.60;99.90;;;;;;5445827;26;20840;-69
2024/04/18 12:22:41;;;;;;;11.30;6.00;;;9.20;99.90;;;;;;5446015;26;20560;-67
2024/04/18 12:25:11;;;;;;;11.37;5.50;;;9.70;99.90;;;;;;5445266;26;20551;-69
2024/04/18 12:27:41;;;;;;;9.40;4.70;;;10.80;99.90;;;;;;5443471;26;20456;-69
2024/04/18 12:30:13;;;;;;;9.73;4.23;;;12.30;99.90;;;;;;5444492;26;20463;-69
2024/04/18 12:32:43;;;;;;;8.63;3.60;;;13.30;99.90;;;;;;5443584;26;20489;-69
2024/04/18 12:35:13;;;;;;;8.13;3.43;;;14.10;99.90;;;;;;5445933;26;20883;-69
2024/04/18 12:37:42;;;;;;;8.40;3.60;;;14.20;99.90;;;;;;5439291;26;20521;-69
2024/04/18 12:40:14;;;;;;;9.07;3.13;;;13.30;99.90;;;;;;5442526;26;20475;-69
2024/04/18 12:42:43;;;;;;;8.83;3.67;;;12.50;99.90;;;;;;5440206;26;20482;-70
2024/04/18 12:45:16;;;;;;;8.80;4.10;;;12.60;99.90;;;;;;5449920;26;20470;-71
2024/04/18 12:47:45;;;;;;;8.70;4.03;;;13.40;99.90;;;;;;5434429;26;20475;-70
2024/04/18 12:50:15;;;;;;;8.70;4.10;;;12.50;99.90;;;;;;5436084;26;20471;-70
2024/04/18 12:52:47;;;;;;;9.20;3.83;;;11.60;99.90;;;;;;5434346;26;20542;-70
2024/04/18 12:55:17;;;;;;;8.53;3.40;;;11.80;99.90;;;;;;5435350;26;20537;-70
2024/04/18 12:57:47;;;;;;;8.87;3.73;;;11.60;99.90;;;;;;5433062;26;20509;-70
2024/04/18 13:00:19;;;;;;;9.87;4.33;;;11.40;99.90;;;;;;5435357;26;20524;-69